Wan Hai 501 — S6AS7 — position and weather

sailwx.info

Track history (hours):
 
Tides and Currents Weather Stations Pressure Air Temp Water Temp Dewpoint Dewpoint Depression Visibility Wind Speed Wind Dir Waves Ship Positions

Wan Hai 501

Last reported at 2016-Aug-26 02:22 UTC. Time now 2016-Aug-27 15:09 UTC.
Position N 24°28' E 119°12'.

Length 269 m; draft 9.5 m.

Type: Cargo ship. MMSI: 563382000.

Date/timePositionNaut miles runAvg speedWind from/ knotsBaromVisibWave heightAir tempDewpointWater temp
2016-Aug-26 02:22N 24°28' E 119°12'1516.8
2016-Aug-26 01:28N 24°18' E 118°59'1516.3
2016-Aug-26 00:33N 24°09' E 118°45'1616.2
2016-Aug-25 23:33N 23°60' E 118°32'1616.0
2016-Aug-25 22:33N 23°50' E 118°18'1716.1
2016-Aug-25 21:31N 23°39' E 118°04'1616.8
2016-Aug-25 20:34N 23°29' E 117°50'3617.4
2016-Aug-25 18:30N 23°09' E 117°17'1717.0
2016-Aug-25 17:31N 23°02' E 117°01'1616.7
2016-Aug-25 16:33N 22°55' E 116°45'13616.0
2016-Aug-25 08:05N 22°07' E 114°28'1115.8
2016-Aug-25 07:24N 22°07' E 114°16'1012.4
2016-Aug-25 06:33N 22°14' E 114°08'6 1.3
2016-Aug-25 02:08N 22°20' E 114°08'0 0.0
2016-Aug-25 01:26N 22°20' E 114°08'0 0.0
2016-Aug-25 00:32N 22°20' E 114°08'0 0.0
2016-Aug-24 23:26N 22°20' E 114°08'0 0.0
2016-Aug-24 22:26N 22°20' E 114°08'0 0.0
2016-Aug-24 21:26N 22°20' E 114°08'0 0.0
2016-Aug-24 20:20N 22°20' E 114°08'0 0.0
2016-Aug-24 19:26N 22°20' E 114°08'0 0.0
2016-Aug-24 17:26N 22°20' E 114°08'0 0.0
2016-Aug-24 16:32N 22°20' E 114°08'0 0.0
2016-Aug-24 15:27N 22°20' E 114°08'15 3.5
2016-Aug-24 11:09N 22°27' E 113°54'0 0.1
2016-Aug-24 10:27N 22°27' E 113°54'0 0.0
2016-Aug-24 09:27N 22°27' E 113°54'0 0.0
2016-Aug-24 08:33N 22°27' E 113°54'0 0.0
2016-Aug-24 07:27N 22°27' E 113°54'0 0.0
2016-Aug-24 06:33N 22°27' E 113°54'0 0.0
2016-Aug-24 04:33N 22°27' E 113°54'10 7.2
2016-Aug-24 03:08N 22°21' E 114°03'4 7.6
2016-Aug-24 02:33N 22°18' E 114°06'  
2016-Aug-19 04:34N 01°16' E 104°10'1615.7
2016-Aug-19 03:34N 01°13' E 103°54'5 5.0
2016-Aug-19 02:29N 01°16' E 103°50'0 0.0
2016-Aug-19 01:23N 01°16' E 103°50'0 0.0
2016-Aug-19 00:29N 01°16' E 103°50'0 0.0
2016-Aug-18 23:32N 01°16' E 103°50'0 0.0
2016-Aug-18 22:29N 01°16' E 103°50'0 0.0
2016-Aug-18 21:29N 01°16' E 103°50'0 0.1
2016-Aug-18 20:32N 01°16' E 103°50'0 0.1
2016-Aug-18 19:29N 01°16' E 103°50'0 0.0
2016-Aug-18 18:32N 01°16' E 103°50'0 0.0
2016-Aug-18 17:26N 01°16' E 103°50'0 0.0
2016-Aug-18 16:29N 01°16' E 103°50'0 0.0
2016-Aug-18 15:29N 01°16' E 103°50'0 0.0
2016-Aug-18 14:32N 01°16' E 103°50'0 0.0
2016-Aug-18 13:29N 01°16' E 103°50'0 0.0
2016-Aug-18 12:29N 01°16' E 103°50'0 0.0
2016-Aug-18 11:29N 01°16' E 103°50'0 0.0
2016-Aug-18 10:29N 01°16' E 103°50'0 0.0
2016-Aug-18 09:32N 01°16' E 103°50'0 0.0
2016-Aug-18 08:29N 01°16' E 103°50'0 0.2
2016-Aug-18 07:33N 01°16' E 103°50'4 4.0
2016-Aug-18 06:33N 01°14' E 103°53'6 5.7
2016-Aug-18 05:33N 01°10' E 103°48'7 6.8
2016-Aug-18 04:33N 01°06' E 103°43'10 9.4
2016-Aug-18 03:30N 01°06' E 103°34'5316.1
2016-Aug-18 00:13N 01°37' E 102°50'2917.2
2016-Aug-17 22:33N 01°50' E 102°24'2016.3
2016-Aug-17 21:20N 02°01' E 102°08'  
Track history (hours):
 
Tides and Currents Weather Stations Pressure Air Temp Water Temp Dewpoint Dewpoint Depression Visibility Wind Speed Wind Dir Waves Ship Positions

Wan Hai 501

Last reported at 2016-Aug-26 02:22 UTC. Time now 2016-Aug-27 15:09 UTC.
Position N 24°28' E 119°12'.

Length 269 m; draft 9.5 m.

Type: Cargo ship. MMSI: 563382000.

Date/timePositionNaut miles runAvg speedWind from/ knotsBaromVisibWave heightAir tempDewpointWater temp
2016-Aug-26 02:22N 24°28' E 119°12'1516.8
2016-Aug-26 01:28N 24°18' E 118°59'1516.3
2016-Aug-26 00:33N 24°09' E 118°45'1616.2
2016-Aug-25 23:33N 23°60' E 118°32'1616.0
2016-Aug-25 22:33N 23°50' E 118°18'1716.1
2016-Aug-25 21:31N 23°39' E 118°04'1616.8
2016-Aug-25 20:34N 23°29' E 117°50'3617.4
2016-Aug-25 18:30N 23°09' E 117°17'1717.0
2016-Aug-25 17:31N 23°02' E 117°01'1616.7
2016-Aug-25 16:33N 22°55' E 116°45'13616.0
2016-Aug-25 08:05N 22°07' E 114°28'1115.8
2016-Aug-25 07:24N 22°07' E 114°16'1012.4
2016-Aug-25 06:33N 22°14' E 114°08'6 1.3
2016-Aug-25 02:08N 22°20' E 114°08'0 0.0
2016-Aug-25 01:26N 22°20' E 114°08'0 0.0
2016-Aug-25 00:32N 22°20' E 114°08'0 0.0
2016-Aug-24 23:26N 22°20' E 114°08'0 0.0
2016-Aug-24 22:26N 22°20' E 114°08'0 0.0
2016-Aug-24 21:26N 22°20' E 114°08'0 0.0
2016-Aug-24 20:20N 22°20' E 114°08'0 0.0
2016-Aug-24 19:26N 22°20' E 114°08'0 0.0
2016-Aug-24 17:26N 22°20' E 114°08'0 0.0
2016-Aug-24 16:32N 22°20' E 114°08'0 0.0
2016-Aug-24 15:27N 22°20' E 114°08'15 3.5
2016-Aug-24 11:09N 22°27' E 113°54'0 0.1
2016-Aug-24 10:27N 22°27' E 113°54'0 0.0
2016-Aug-24 09:27N 22°27' E 113°54'0 0.0
2016-Aug-24 08:33N 22°27' E 113°54'0 0.0
2016-Aug-24 07:27N 22°27' E 113°54'0 0.0
2016-Aug-24 06:33N 22°27' E 113°54'0 0.0
2016-Aug-24 04:33N 22°27' E 113°54'10 7.2
2016-Aug-24 03:08N 22°21' E 114°03'4 7.6
2016-Aug-24 02:33N 22°18' E 114°06'  
2016-Aug-19 04:34N 01°16' E 104°10'1615.7
2016-Aug-19 03:34N 01°13' E 103°54'5 5.0
2016-Aug-19 02:29N 01°16' E 103°50'0 0.0
2016-Aug-19 01:23N 01°16' E 103°50'0 0.0
2016-Aug-19 00:29N 01°16' E 103°50'0 0.0
2016-Aug-18 23:32N 01°16' E 103°50'0 0.0
2016-Aug-18 22:29N 01°16' E 103°50'0 0.0
2016-Aug-18 21:29N 01°16' E 103°50'0 0.1
2016-Aug-18 20:32N 01°16' E 103°50'0 0.1
2016-Aug-18 19:29N 01°16' E 103°50'0 0.0
2016-Aug-18 18:32N 01°16' E 103°50'0 0.0
2016-Aug-18 17:26N 01°16' E 103°50'0 0.0
2016-Aug-18 16:29N 01°16' E 103°50'0 0.0
2016-Aug-18 15:29N 01°16' E 103°50'0 0.0
2016-Aug-18 14:32N 01°16' E 103°50'0 0.0
2016-Aug-18 13:29N 01°16' E 103°50'0 0.0
2016-Aug-18 12:29N 01°16' E 103°50'0 0.0
2016-Aug-18 11:29N 01°16' E 103°50'0 0.0
2016-Aug-18 10:29N 01°16' E 103°50'0 0.0
2016-Aug-18 09:32N 01°16' E 103°50'0 0.0
2016-Aug-18 08:29N 01°16' E 103°50'0 0.2
2016-Aug-18 07:33N 01°16' E 103°50'4 4.0
2016-Aug-18 06:33N 01°14' E 103°53'6 5.7
2016-Aug-18 05:33N 01°10' E 103°48'7 6.8
2016-Aug-18 04:33N 01°06' E 103°43'10 9.4
2016-Aug-18 03:30N 01°06' E 103°34'5316.1
2016-Aug-18 00:13N 01°37' E 102°50'2917.2
2016-Aug-17 22:33N 01°50' E 102°24'2016.3
2016-Aug-17 21:20N 02°01' E 102°08'  

Dump ship's entire track history